Time;durP1;ratioP1;P1;durP2;ratioP2;P2;SDS_P1;SDS_P2;PMS_P1;PMS_P2;Temp;Humidity;BMP_temperature;BMP_pressure;BME280_temperature;BME280_humidity;BME280_pressure;Samples;Min_cycle;Max_cycle;Signal;HPM_P1;HPM_P2
2022/12/15 00:40:38;;;;;;;;;64.25;53.25;;;;;;;;5061728;28;45377;-75
2022/12/15 00:43:03;;;;;;;;;61.00;50.75;;;;;;;;5062152;28;45308;-75
2022/12/15 00:48:12;;;;;;;;;60.50;49.25;;;;;;;;5061888;28;45744;-75
2022/12/15 00:50:58;;;;;;;;;63.25;50.25;;;;;;;;5061945;28;45367;-74
2022/12/15 01:20:43;;;;;;;;;65.00;53.75;;;;;;;;5061492;28;45474;-75
2022/12/15 01:23:08;;;;;;;;;64.75;52.50;;;;;;;;5060070;28;45366;-75
2022/12/15 01:25:33;;;;;;;;;63.25;50.25;;;;;;;;5061659;28;45394;-76
2022/12/15 01:27:58;;;;;;;;;65.00;52.25;;;;;;;;5061247;28;45302;-75
2022/12/15 01:30:25;;;;;;;;;62.00;51.75;;;;;;;;5061579;28;45578;-75
2022/12/15 01:32:50;;;;;;;;;66.50;54.00;;;;;;;;5061387;28;45195;-75
2022/12/15 01:35:16;;;;;;;;;61.25;51.00;;;;;;;;5060387;28;45322;-75
2022/12/15 01:37:42;;;;;;;;;62.75;52.25;;;;;;;;5060093;28;46237;-75
2022/12/15 01:42:52;;;;;;;;;61.50;50.00;;;;;;;;5061698;28;45223;-75
2022/12/15 01:45:35;;;;;;;;;64.00;52.00;;;;;;;;5060787;28;45271;-75
2022/12/15 01:48:04;;;;;;;;;58.50;49.00;;;;;;;;5050970;28;45652;-75
2022/12/15 01:50:31;;;;;;;;;61.75;50.75;;;;;;;;5062596;28;45588;-75
2022/12/15 01:52:57;;;;;;;;;62.00;52.25;;;;;;;;5061473;28;45366;-75
2022/12/15 01:55:24;;;;;;;;;66.00;53.00;;;;;;;;5062617;28;45303;-75
2022/12/15 01:57:51;;;;;;;;;59.50;47.50;;;;;;;;5062103;28;45335;-75
2022/12/15 02:00:16;;;;;;;;;64.50;52.00;;;;;;;;5061139;28;48408;-75
2022/12/15 02:02:41;;;;;;;;;67.75;54.00;;;;;;;;5062381;28;45157;-75
2022/12/15 02:05:07;;;;;;;;;60.25;48.25;;;;;;;;5062960;28;45270;-75
2022/12/15 02:07:32;;;;;;;;;65.75;52.25;;;;;;;;5062067;28;45292;-75
2022/12/15 02:10:00;;;;;;;;;62.50;53.25;;;;;;;;5062161;28;45266;-75
2022/12/15 02:12:47;;;;;;;;;65.25;51.50;;;;;;;;5061763;28;45378;-75
2022/12/15 02:15:21;;;;;;;;;70.00;55.00;;;;;;;;5062039;28;45287;-75
2022/12/15 02:17:56;;;;;;;;;67.25;53.50;;;;;;;;5061892;28;45327;-75
2022/12/15 02:20:33;;;;;;;;;61.75;51.25;;;;;;;;5062266;28;45417;-75
2022/12/15 02:23:11;;;;;;;;;64.50;53.25;;;;;;;;5062196;28;45388;-75
2022/12/15 02:25:48;;;;;;;;;66.75;55.00;;;;;;;;5061966;28;46004;-75
2022/12/15 02:28:32;;;;;;;;;66.50;53.25;;;;;;;;5062515;28;45485;-75
2022/12/15 02:31:58;;;;;;;;;61.75;50.75;;;;;;;;5050746;28;45242;-75
2022/12/15 02:33:54;;;;;;;;;62.25;53.00;;;;;;;;5057993;28;45578;-75
2022/12/15 02:36:22;;;;;;;;;69.75;54.00;;;;;;;;5062653;28;45448;-75
2022/12/15 02:38:48;;;;;;;;;63.25;51.50;;;;;;;;5063596;28;45706;-75
2022/12/15 02:41:32;;;;;;;;;61.00;52.25;;;;;;;;5063364;28;48358;-75
2022/12/15 02:43:57;;;;;;;;;65.75;54.75;;;;;;;;5065396;28;45351;-75
2022/12/15 02:46:30;;;;;;;;;64.75;54.50;;;;;;;;5066599;28;45423;-75
2022/12/15 02:48:55;;;;;;;;;65.00;53.25;;;;;;;;5065643;28;46394;-75
2022/12/15 02:51:34;;;;;;;;;68.25;55.25;;;;;;;;5068105;28;46319;-76
2022/12/15 02:54:19;;;;;;;;;72.00;57.25;;;;;;;;5067628;28;45310;-76
2022/12/15 02:57:02;;;;;;;;;67.25;55.25;;;;;;;;5067316;28;45326;-76
2022/12/15 02:59:36;;;;;;;;;71.50;55.75;;;;;;;;5067648;28;45379;-75
2022/12/15 03:02:05;;;;;;;;;65.75;52.50;;;;;;;;5067479;28;45256;-76
2022/12/15 03:04:32;;;;;;;;;65.50;53.00;;;;;;;;5065756;28;45271;-75
2022/12/15 03:06:59;;;;;;;;;55.25;48.00;;;;;;;;5066919;28;45502;-75
2022/12/15 03:09:24;;;;;;;;;64.75;54.75;;;;;;;;5066212;28;45512;-75
2022/12/15 03:11:50;;;;;;;;;65.75;54.00;;;;;;;;5065244;28;46956;-75
2022/12/15 03:14:15;;;;;;;;;65.50;53.25;;;;;;;;5065683;28;45373;-75
2022/12/15 03:16:40;;;;;;;;;64.50;53.75;;;;;;;;5067121;28;45303;-75
2022/12/15 03:19:05;;;;;;;;;70.50;56.50;;;;;;;;5066017;28;45456;-75
2022/12/15 03:21:31;;;;;;;;;70.75;56.25;;;;;;;;5062965;28;45441;-75
2022/12/15 03:23:56;;;;;;;;;73.00;57.75;;;;;;;;5065336;28;45541;-76
2022/12/15 03:26:21;;;;;;;;;70.00;55.50;;;;;;;;5062908;28;45439;-75
2022/12/15 03:28:46;;;;;;;;;71.50;54.75;;;;;;;;5063458;28;45409;-76
2022/12/15 03:31:12;;;;;;;;;68.00;56.75;;;;;;;;5061534;28;48357;-76
2022/12/15 03:33:37;;;;;;;;;66.75;53.50;;;;;;;;5062281;28;45376;-75
2022/12/15 03:36:02;;;;;;;;;67.50;55.00;;;;;;;;5060939;28;45342;-76
2022/12/15 03:38:28;;;;;;;;;65.25;55.25;;;;;;;;5059645;28;45827;-76
2022/12/15 03:40:53;;;;;;;;;70.50;56.00;;;;;;;;5060961;28;45378;-75
2022/12/15 03:43:18;;;;;;;;;67.50;55.75;;;;;;;;5060804;28;45337;-75
2022/12/15 03:45:43;;;;;;;;;65.75;52.00;;;;;;;;5060170;28;45255;-75
2022/12/15 03:48:08;;;;;;;;;65.00;51.25;;;;;;;;5060104;28;45393;-75
2022/12/15 03:50:34;;;;;;;;;62.75;52.25;;;;;;;;5059951;28;45294;-76
2022/12/15 03:53:01;;;;;;;;;71.25;55.75;;;;;;;;5059965;28;45347;-75
2022/12/15 03:55:30;;;;;;;;;60.50;47.75;;;;;;;;5059542;28;45438;-75
2022/12/15 03:57:55;;;;;;;;;66.00;53.25;;;;;;;;5058240;28;46028;-75
2022/12/15 04:00:21;;;;;;;;;65.75;52.50;;;;;;;;5058033;28;47213;-75
2022/12/15 04:02:47;;;;;;;;;66.25;55.00;;;;;;;;5057940;28;45339;-75
2022/12/15 04:05:17;;;;;;;;;63.25;52.50;;;;;;;;5059522;28;45302;-76
2022/12/15 04:07:42;;;;;;;;;57.00;49.25;;;;;;;;5060027;28;45509;-75
2022/12/15 04:10:08;;;;;;;;;62.00;50.00;;;;;;;;5062811;28;45368;-75
2022/12/15 04:12:33;;;;;;;;;67.00;54.75;;;;;;;;5062547;28;45374;-75
2022/12/15 04:14:58;;;;;;;;;68.25;56.50;;;;;;;;5063141;28;45361;-75
2022/12/15 04:17:23;;;;;;;;;63.50;52.75;;;;;;;;5062794;28;45177;-75
2022/12/15 04:22:32;;;;;;;;;68.25;57.25;;;;;;;;5062575;28;45172;-75
2022/12/15 05:33:16;;;;;;;;;76.50;61.25;;;;;;;;5061252;28;45387;-75
2022/12/15 05:35:41;;;;;;;;;92.00;71.50;;;;;;;;5061050;28;45344;-74
2022/12/15 05:38:07;;;;;;;;;131.33;115.67;;;;;;;;5061422;28;45305;-74
2022/12/15 05:40:32;;;;;;;;;93.50;71.00;;;;;;;;5060866;28;45459;-75
2022/12/15 05:42:58;;;;;;;;;84.00;65.00;;;;;;;;5061288;28;45285;-75
2022/12/15 05:45:23;;;;;;;;;82.50;64.50;;;;;;;;5060953;28;45327;-74
2022/12/15 05:47:52;;;;;;;;;139.33;117.33;;;;;;;;5061015;28;45342;-75
2022/12/15 05:50:17;;;;;;;;;94.00;77.00;;;;;;;;5061257;28;45334;-74
2022/12/15 05:52:43;;;;;;;;;73.50;59.00;;;;;;;;5059552;28;45928;-75
2022/12/15 05:55:08;;;;;;;;;68.25;57.00;;;;;;;;5059481;28;46915;-75
2022/12/15 05:57:33;;;;;;;;;73.50;58.50;;;;;;;;5060923;28;45270;-75
2022/12/15 05:59:58;;;;;;;;;74.00;61.50;;;;;;;;5059780;28;45337;-75
2022/12/15 06:02:24;;;;;;;;;77.00;61.75;;;;;;;;5059451;28;45853;-75
2022/12/15 06:04:49;;;;;;;;;91.75;71.50;;;;;;;;5060886;28;45569;-75
2022/12/15 06:07:14;;;;;;;;;77.00;61.50;;;;;;;;5061049;28;45206;-75
2022/12/15 06:09:39;;;;;;;;;66.25;55.25;;;;;;;;5059413;28;45318;-74
2022/12/15 06:12:04;;;;;;;;;68.75;56.50;;;;;;;;5061041;28;45452;-74
2022/12/15 06:14:30;;;;;;;;;75.25;60.00;;;;;;;;5060581;28;45361;-74
2022/12/15 06:16:55;;;;;;;;;72.25;57.00;;;;;;;;5061013;28;45305;-74
2022/12/15 06:19:20;;;;;;;;;85.25;67.25;;;;;;;;5060341;28;45396;-74
2022/12/15 06:21:46;;;;;;;;;64.75;53.50;;;;;;;;5060818;28;45347;-74
2022/12/15 06:24:11;;;;;;;;;82.00;63.00;;;;;;;;5056684;28;45470;-76
2022/12/15 06:26:37;;;;;;;;;75.50;59.75;;;;;;;;5064558;28;45300;-75
2022/12/15 06:29:04;;;;;;;;;76.75;59.00;;;;;;;;5055472;28;45437;-74
2022/12/15 06:31:29;;;;;;;;;84.25;66.75;;;;;;;;5051046;28;46426;-75
2022/12/15 06:33:55;;;;;;;;;72.50;59.50;;;;;;;;5059777;28;45298;-75
2022/12/15 06:36:22;;;;;;;;;57.25;48.00;;;;;;;;5057578;28;45412;-75
2022/12/15 06:38:48;;;;;;;;;72.25;57.00;;;;;;;;5051574;28;45549;-75
2022/12/15 06:41:15;;;;;;;;;66.50;56.50;;;;;;;;5050916;28;45448;-75
2022/12/15 06:43:40;;;;;;;;;68.00;56.25;;;;;;;;5052320;28;45538;-75
2022/12/15 06:46:06;;;;;;;;;80.75;63.75;;;;;;;;5056534;28;45472;-76
2022/12/15 06:48:31;;;;;;;;;74.50;59.50;;;;;;;;5055507;28;45424;-75
2022/12/15 06:51:01;;;;;;;;;74.50;60.25;;;;;;;;5058448;28;45505;-77
2022/12/15 06:53:26;;;;;;;;;75.75;58.00;;;;;;;;5053672;28;47954;-75
2022/12/15 06:55:51;;;;;;;;;73.50;58.75;;;;;;;;5059696;28;45367;-75
2022/12/15 06:58:17;;;;;;;;;59.00;49.50;;;;;;;;5059939;28;45263;-75
2022/12/15 07:00:43;;;;;;;;;69.50;57.00;;;;;;;;5059683;28;45273;-76
2022/12/15 07:03:12;;;;;;;;;78.00;61.50;;;;;;;;5056996;28;46848;-75
2022/12/15 07:05:38;;;;;;;;;80.75;65.00;;;;;;;;5053688;28;45531;-76
2022/12/15 07:08:03;;;;;;;;;75.00;60.25;;;;;;;;5059597;28;45480;-76
2022/12/15 07:10:28;;;;;;;;;97.75;79.50;;;;;;;;5059509;28;45326;-75
2022/12/15 07:12:56;;;;;;;;;71.00;58.75;;;;;;;;5060017;28;45361;-76
2022/12/15 07:15:22;;;;;;;;;74.25;60.25;;;;;;;;5059497;28;45260;-76
2022/12/15 07:17:47;;;;;;;;;74.50;59.00;;;;;;;;5054450;28;45359;-77
2022/12/15 07:20:12;;;;;;;;;65.75;53.00;;;;;;;;5059268;28;45439;-75
2022/12/15 07:22:37;;;;;;;;;83.25;64.00;;;;;;;;5055192;28;46975;-75
2022/12/15 07:25:03;;;;;;;;;67.75;57.00;;;;;;;;5045678;28;45438;-75
2022/12/15 07:27:28;;;;;;;;;86.00;67.50;;;;;;;;5053781;28;45264;-75
2022/12/15 07:29:53;;;;;;;;;71.75;57.75;;;;;;;;5048337;28;46920;-75
2022/12/15 07:32:19;;;;;;;;;71.25;57.75;;;;;;;;5057053;28;45334;-76
2022/12/15 07:34:44;;;;;;;;;73.75;59.25;;;;;;;;5059470;28;45394;-75
2022/12/15 07:37:09;;;;;;;;;73.50;58.50;;;;;;;;5059620;28;45332;-73
2022/12/15 07:39:35;;;;;;;;;75.50;60.00;;;;;;;;5049635;28;45535;-73
2022/12/15 07:42:00;;;;;;;;;81.00;64.00;;;;;;;;5057446;28;46085;-76
2022/12/15 07:44:26;;;;;;;;;78.75;60.50;;;;;;;;5047838;28;45386;-75
2022/12/15 07:46:51;;;;;;;;;68.00;56.25;;;;;;;;5046099;28;45806;-75
2022/12/15 07:49:17;;;;;;;;;75.25;60.00;;;;;;;;5057696;28;46452;-76
2022/12/15 07:51:42;;;;;;;;;65.25;52.75;;;;;;;;5057411;28;47581;-74
2022/12/15 07:54:11;;;;;;;;;67.50;55.25;;;;;;;;5043978;28;45546;-76
2022/12/15 07:56:37;;;;;;;;;78.50;61.75;;;;;;;;5040348;28;45339;-75
2022/12/15 07:59:03;;;;;;;;;90.75;71.25;;;;;;;;5057792;28;46558;-75
2022/12/15 08:01:28;;;;;;;;;77.75;62.50;;;;;;;;5058781;28;45374;-75
2022/12/15 08:03:53;;;;;;;;;82.25;64.75;;;;;;;;5058968;28;45306;-75
2022/12/15 08:06:18;;;;;;;;;71.00;57.50;;;;;;;;5059177;28;45198;-74
2022/12/15 08:08:44;;;;;;;;;73.75;59.50;;;;;;;;5058297;28;45406;-74
2022/12/15 08:11:11;;;;;;;;;75.50;60.75;;;;;;;;5058884;28;46091;-74
2022/12/15 08:13:37;;;;;;;;;69.25;57.50;;;;;;;;5057279;28;45387;-74
2022/12/15 08:16:02;;;;;;;;;73.25;58.50;;;;;;;;5056674;28;45431;-74
2022/12/15 08:18:28;;;;;;;;;84.25;66.50;;;;;;;;5048472;28;45575;-74
2022/12/15 08:20:53;;;;;;;;;71.75;59.00;;;;;;;;5058604;28;45593;-74
2022/12/15 08:23:18;;;;;;;;;89.00;70.50;;;;;;;;5057182;28;45393;-74
2022/12/15 08:25:43;;;;;;;;;74.50;60.50;;;;;;;;5058664;28;45306;-74
2022/12/15 08:28:09;;;;;;;;;106.67;90.67;;;;;;;;5056029;28;45288;-74
2022/12/15 08:30:35;;;;;;;;;90.50;69.50;;;;;;;;5044264;28;46332;-73
2022/12/15 08:33:01;;;;;;;;;72.00;55.75;;;;;;;;5057423;28;45323;-74
2022/12/15 08:35:26;;;;;;;;;73.50;59.00;;;;;;;;5055346;28;45816;-75
2022/12/15 08:37:51;;;;;;;;;74.25;59.25;;;;;;;;5050996;28;45634;-74
2022/12/15 08:40:16;;;;;;;;;83.50;66.25;;;;;;;;5057715;28;45333;-74
2022/12/15 08:42:41;;;;;;;;;95.75;81.00;;;;;;;;5057166;28;45348;-73
2022/12/15 08:45:07;;;;;;;;;96.00;72.75;;;;;;;;5048861;28;45378;-74
2022/12/15 08:47:32;;;;;;;;;78.00;61.75;;;;;;;;5055685;28;45333;-74
2022/12/15 08:49:58;;;;;;;;;79.75;61.25;;;;;;;;5048499;28;47290;-74
2022/12/15 08:52:23;;;;;;;;;73.75;57.75;;;;;;;;5054348;28;45642;-73
2022/12/15 08:54:48;;;;;;;;;73.00;60.25;;;;;;;;5057269;28;45425;-74
2022/12/15 08:57:13;;;;;;;;;74.50;58.75;;;;;;;;5058482;28;45551;-74
2022/12/15 08:59:39;;;;;;;;;78.25;63.50;;;;;;;;5061567;28;45285;-74
2022/12/15 09:02:04;;;;;;;;;78.00;61.75;;;;;;;;5061644;28;45490;-73
2022/12/15 09:04:29;;;;;;;;;75.00;61.75;;;;;;;;5055012;28;45322;-73
2022/12/15 09:06:55;;;;;;;;;78.00;62.25;;;;;;;;5053905;28;45780;-73
2022/12/15 09:09:20;;;;;;;;;73.00;59.50;;;;;;;;5060049;28;45879;-74
2022/12/15 09:11:45;;;;;;;;;90.75;69.50;;;;;;;;5047973;28;45340;-74
2022/12/15 09:14:10;;;;;;;;;96.00;77.75;;;;;;;;5044862;28;45523;-73
2022/12/15 09:16:36;;;;;;;;;87.25;68.00;;;;;;;;5058017;28;45503;-73
2022/12/15 09:19:01;;;;;;;;;101.00;87.50;;;;;;;;5045661;28;45319;-73
2022/12/15 09:21:27;;;;;;;;;100.25;85.00;;;;;;;;5050426;28;45329;-74
2022/12/15 09:23:54;;;;;;;;;110.00;98.67;;;;;;;;5058373;28;45383;-74
2022/12/15 09:26:20;;;;;;;;;97.50;77.00;;;;;;;;5060378;28;45457;-74
2022/12/15 09:28:46;;;;;;;;;85.75;66.75;;;;;;;;5060488;28;45417;-74
2022/12/15 09:31:15;;;;;;;;;94.00;75.25;;;;;;;;5059096;28;45420;-74
2022/12/15 09:33:41;;;;;;;;;90.50;67.50;;;;;;;;5057732;28;45533;-74
2022/12/15 09:36:07;;;;;;;;;99.00;82.00;;;;;;;;5059326;28;46005;-73
2022/12/15 09:38:39;;;;;;;;;127.67;112.33;;;;;;;;5050739;28;45865;-75
2022/12/15 09:41:16;;;;;;;;;81.50;62.25;;;;;;;;5043431;28;45272;-73
2022/12/15 09:44:00;;;;;;;;;73.25;60.00;;;;;;;;5053302;28;45328;-73
2022/12/15 09:46:29;;;;;;;;;84.50;64.25;;;;;;;;5052580;28;45424;-75
2022/12/15 09:48:57;;;;;;;;;78.25;63.00;;;;;;;;5046624;28;45370;-74
2022/12/15 09:51:28;;;;;;;;;72.50;57.25;;;;;;;;5055633;28;45336;-74
2022/12/15 09:53:53;;;;;;;;;74.25;59.50;;;;;;;;5051811;28;45382;-74
2022/12/15 09:56:22;;;;;;;;;77.75;62.25;;;;;;;;5060580;28;45613;-73
2022/12/15 09:59:09;;;;;;;;;74.00;58.50;;;;;;;;5057370;28;45381;-74
2022/12/15 10:01:49;;;;;;;;;80.25;59.00;;;;;;;;5060491;28;46295;-73
2022/12/15 10:04:33;;;;;;;;;80.00;63.50;;;;;;;;5052657;28;45586;-74
2022/12/15 10:07:01;;;;;;;;;78.25;63.25;;;;;;;;5058420;28;46289;-73
2022/12/15 10:09:28;;;;;;;;;70.75;56.00;;;;;;;;5060088;28;45697;-74
2022/12/15 10:11:56;;;;;;;;;79.50;62.75;;;;;;;;5060434;28;45519;-73
2022/12/15 10:14:36;;;;;;;;;72.25;59.00;;;;;;;;5057956;28;45366;-74
2022/12/15 10:17:05;;;;;;;;;72.50;57.00;;;;;;;;5055583;28;47343;-74
2022/12/15 10:19:57;;;;;;;;;90.50;71.75;;;;;;;;5053546;28;45361;-73
2022/12/15 10:22:26;;;;;;;;;88.50;68.50;;;;;;;;5054051;28;45478;-74
2022/12/15 10:24:52;;;;;;;;;70.25;57.00;;;;;;;;5050508;28;45391;-73
2022/12/15 10:27:32;;;;;;;;;78.50;62.75;;;;;;;;5050210;28;45469;-74
2022/12/15 10:30:02;;;;;;;;;69.50;55.25;;;;;;;;5047540;28;45689;-74
2022/12/15 10:32:34;;;;;;;;;72.00;58.50;;;;;;;;5048054;28;45329;-73
2022/12/15 10:35:00;;;;;;;;;92.00;77.75;;;;;;;;5055873;28;45496;-74
2022/12/15 10:37:25;;;;;;;;;73.00;58.25;;;;;;;;5053739;28;45319;-74
2022/12/15 10:39:50;;;;;;;;;70.50;56.00;;;;;;;;5049652;28;48514;-74
2022/12/15 10:42:23;;;;;;;;;67.50;55.50;;;;;;;;5047951;28;45406;-74
2022/12/15 10:44:50;;;;;;;;;63.25;52.50;;;;;;;;5055388;28;45342;-73
2022/12/15 10:47:18;;;;;;;;;95.50;79.50;;;;;;;;5052064;28;47319;-74
2022/12/15 10:49:43;;;;;;;;;67.00;52.75;;;;;;;;5045329;28;46211;-73
2022/12/15 10:52:20;;;;;;;;;79.25;61.25;;;;;;;;5058468;28;45441;-74
2022/12/15 10:54:47;;;;;;;;;67.75;54.75;;;;;;;;5059666;28;45300;-74
2022/12/15 10:57:20;;;;;;;;;66.75;52.75;;;;;;;;5058563;28;46516;-74
2022/12/15 10:59:45;;;;;;;;;69.50;52.75;;;;;;;;5044184;28;45406;-74
2022/12/15 11:02:20;;;;;;;;;63.75;52.00;;;;;;;;5056214;28;46559;-75
2022/12/15 11:04:57;;;;;;;;;63.75;54.00;;;;;;;;5057862;28;45341;-74
2022/12/15 11:07:27;;;;;;;;;73.50;57.75;;;;;;;;5059036;28;45241;-74
2022/12/15 11:09:57;;;;;;;;;122.67;107.67;;;;;;;;5059313;28;46406;-74
2022/12/15 11:15:30;;;;;;;;;69.75;54.50;;;;;;;;5059890;28;45328;-73
2022/12/15 11:18:01;;;;;;;;;63.75;52.25;;;;;;;;5054849;28;45460;-73
2022/12/15 11:20:29;;;;;;;;;69.00;51.75;;;;;;;;5059057;28;46125;-74
2022/12/15 11:22:56;;;;;;;;;62.25;49.25;;;;;;;;5059630;28;45291;-74
2022/12/15 11:25:28;;;;;;;;;63.75;51.00;;;;;;;;5059283;28;45260;-74
2022/12/15 11:27:55;;;;;;;;;61.25;50.50;;;;;;;;5059474;28;45620;-74
2022/12/15 11:30:22;;;;;;;;;65.00;54.00;;;;;;;;5049499;28;45686;-74
2022/12/15 11:32:52;;;;;;;;;61.50;49.75;;;;;;;;5052205;28;45355;-76
2022/12/15 11:35:20;;;;;;;;;61.00;49.00;;;;;;;;5045980;28;45381;-74
2022/12/15 11:37:50;;;;;;;;;60.25;49.25;;;;;;;;5045566;28;45666;-74
2022/12/15 11:40:18;;;;;;;;;68.00;56.00;;;;;;;;5045607;28;46894;-75
2022/12/15 11:42:59;;;;;;;;;62.75;51.75;;;;;;;;5051532;28;45464;-73
2022/12/15 11:45:25;;;;;;;;;63.50;52.25;;;;;;;;5047155;28;45462;-74
2022/12/15 11:48:00;;;;;;;;;69.25;55.00;;;;;;;;5047427;28;46324;-75
2022/12/15 11:50:25;;;;;;;;;62.50;50.50;;;;;;;;5056884;28;48343;-74
2022/12/15 11:53:02;;;;;;;;;71.50;56.00;;;;;;;;5053362;28;45444;-75
2022/12/15 11:55:33;;;;;;;;;59.25;49.50;;;;;;;;5055313;28;45300;-74
2022/12/15 11:58:05;;;;;;;;;58.00;48.50;;;;;;;;5054407;28;45410;-74
2022/12/15 12:00:34;;;;;;;;;68.25;54.50;;;;;;;;5054189;28;45467;-73
2022/12/15 12:02:59;;;;;;;;;60.50;50.50;;;;;;;;5057644;28;45381;-74
2022/12/15 12:05:25;;;;;;;;;48.75;41.50;;;;;;;;5044251;28;45469;-73
2022/12/15 12:08:23;;;;;;;;;58.50;48.00;;;;;;;;5048101;28;45913;-73
2022/12/15 12:11:07;;;;;;;;;70.75;56.75;;;;;;;;5056302;28;46865;-73
2022/12/15 12:13:41;;;;;;;;;64.75;53.00;;;;;;;;5058275;28;45503;-73
2022/12/15 12:16:30;;;;;;;;;76.50;61.00;;;;;;;;5057205;28;45307;-73
2022/12/15 12:19:01;;;;;;;;;74.00;59.50;;;;;;;;5054822;28;46702;-73
2022/12/15 12:21:28;;;;;;;;;81.50;64.50;;;;;;;;5057716;28;45957;-73
2022/12/15 12:24:02;;;;;;;;;58.25;47.75;;;;;;;;5057781;28;45301;-73
2022/12/15 12:26:34;;;;;;;;;63.00;51.25;;;;;;;;5057491;28;45345;-73
2022/12/15 12:29:03;;;;;;;;;66.00;54.75;;;;;;;;5044476;28;45346;-73
2022/12/15 12:31:42;;;;;;;;;58.00;45.50;;;;;;;;5054515;28;45458;-73
2022/12/15 12:34:27;;;;;;;;;66.75;51.25;;;;;;;;5061533;28;45536;-73
2022/12/15 12:36:54;;;;;;;;;71.25;56.25;;;;;;;;5056925;28;45568;-74
2022/12/15 12:39:22;;;;;;;;;70.75;54.00;;;;;;;;5051157;28;45484;-75
2022/12/15 12:42:13;;;;;;;;;78.75;61.75;;;;;;;;5047457;28;45339;-75
2022/12/15 12:44:38;;;;;;;;;60.75;50.50;;;;;;;;5053919;28;46318;-75
2022/12/15 12:47:07;;;;;;;;;70.75;56.25;;;;;;;;5057466;28;45402;-73
2022/12/15 12:49:42;;;;;;;;;75.00;58.25;;;;;;;;5055443;28;45659;-75
2022/12/15 12:52:18;;;;;;;;;67.25;51.75;;;;;;;;5053717;28;45389;-74
2022/12/15 12:54:48;;;;;;;;;62.00;51.75;;;;;;;;5059478;28;45206;-74
2022/12/15 12:57:13;;;;;;;;;62.50;48.25;;;;;;;;5064471;28;45361;-75
2022/12/15 12:59:56;;;;;;;;;55.00;47.00;;;;;;;;5058572;28;45899;-74
2022/12/15 13:02:23;;;;;;;;;57.25;44.75;;;;;;;;5051371;28;46545;-75
2022/12/15 13:04:49;;;;;;;;;59.75;46.25;;;;;;;;5056869;28;45492;-74
2022/12/15 13:07:15;;;;;;;;;47.75;42.00;;;;;;;;5056051;28;45401;-74
2022/12/15 13:09:41;;;;;;;;;56.75;43.50;;;;;;;;5053645;28;45337;-74
2022/12/15 13:12:26;;;;;;;;;49.75;42.50;;;;;;;;5053431;28;46504;-74
2022/12/15 13:14:53;;;;;;;;;54.25;43.00;;;;;;;;5050331;27;45491;-74
2022/12/15 13:17:22;;;;;;;;;47.00;39.50;;;;;;;;5057320;28;45567;-75
2022/12/15 13:20:00;;;;;;;;;47.25;41.50;;;;;;;;5059941;28;46607;-74
2022/12/15 13:22:39;;;;;;;;;53.25;44.00;;;;;;;;5050527;28;46636;-75
2022/12/15 13:25:23;;;;;;;;;54.25;45.50;;;;;;;;5056441;28;45232;-74
2022/12/15 13:27:52;;;;;;;;;48.00;40.50;;;;;;;;5055026;28;45481;-74
2022/12/15 13:30:17;;;;;;;;;55.00;45.00;;;;;;;;5061258;28;45466;-73
2022/12/15 13:32:50;;;;;;;;;42.25;39.00;;;;;;;;5058744;28;45675;-74
2022/12/15 13:35:20;;;;;;;;;50.75;43.50;;;;;;;;5059666;28;45536;-74
2022/12/15 13:37:46;;;;;;;;;42.00;37.75;;;;;;;;5059654;28;45358;-74
2022/12/15 13:40:32;;;;;;;;;48.75;40.00;;;;;;;;5060225;28;45430;-75
2022/12/15 13:43:03;;;;;;;;;44.50;38.25;;;;;;;;5051675;28;45429;-75
2022/12/15 13:45:40;;;;;;;;;44.75;37.75;;;;;;;;5055549;28;45437;-75
2022/12/15 13:48:16;;;;;;;;;44.00;39.00;;;;;;;;5052947;28;45385;-75
2022/12/15 13:50:48;;;;;;;;;59.25;48.75;;;;;;;;5055251;28;46500;-75
2022/12/15 13:53:19;;;;;;;;;45.75;37.75;;;;;;;;5047931;28;48491;-75
2022/12/15 13:55:52;;;;;;;;;43.75;37.50;;;;;;;;5053298;28;45521;-74
2022/12/15 13:58:19;;;;;;;;;39.25;36.75;;;;;;;;5057524;28;45290;-75
2022/12/15 14:00:49;;;;;;;;;40.00;36.50;;;;;;;;5053532;28;45524;-74
2022/12/15 14:03:14;;;;;;;;;48.75;40.50;;;;;;;;5043052;28;48189;-74
2022/12/15 14:05:46;;;;;;;;;45.25;38.75;;;;;;;;5054113;28;45480;-75
2022/12/15 14:08:15;;;;;;;;;44.00;39.25;;;;;;;;5051079;28;45370;-74
2022/12/15 14:10:42;;;;;;;;;42.25;39.25;;;;;;;;5044212;28;45500;-75
2022/12/15 14:13:10;;;;;;;;;41.75;36.75;;;;;;;;5059054;28;46701;-74
2022/12/15 14:15:39;;;;;;;;;41.75;38.25;;;;;;;;5055375;28;45912;-74
2022/12/15 14:18:04;;;;;;;;;51.25;39.50;;;;;;;;5049206;28;45445;-74
2022/12/15 14:20:31;;;;;;;;;50.50;43.75;;;;;;;;5060285;28;45299;-74
2022/12/15 14:22:56;;;;;;;;;44.25;39.00;;;;;;;;5054271;28;45510;-75
2022/12/15 14:25:23;;;;;;;;;46.00;34.00;;;;;;;;5057322;28;45343;-74
2022/12/15 14:27:49;;;;;;;;;51.00;41.00;;;;;;;;5060615;28;45212;-74
2022/12/15 14:30:16;;;;;;;;;56.00;47.00;;;;;;;;5059010;28;45417;-75
2022/12/15 14:32:43;;;;;;;;;56.75;46.75;;;;;;;;5058703;28;46537;-74
2022/12/15 14:35:13;;;;;;;;;76.75;60.25;;;;;;;;5060303;28;45330;-74
2022/12/15 14:37:39;;;;;;;;;43.00;38.25;;;;;;;;5056899;28;45258;-74
2022/12/15 14:40:04;;;;;;;;;61.00;49.50;;;;;;;;5046239;28;45352;-75
2022/12/15 14:42:30;;;;;;;;;77.25;57.50;;;;;;;;5049433;28;45758;-74
2022/12/15 14:44:55;;;;;;;;;70.00;56.00;;;;;;;;5056569;28;45422;-75
2022/12/15 14:47:23;;;;;;;;;53.50;44.25;;;;;;;;5052377;28;45245;-74
2022/12/15 14:49:49;;;;;;;;;38.00;36.50;;;;;;;;5047786;28;47246;-75
2022/12/15 14:52:23;;;;;;;;;43.00;37.50;;;;;;;;5044245;28;45982;-74
2022/12/15 14:54:50;;;;;;;;;41.25;35.75;;;;;;;;5054596;28;46039;-74
2022/12/15 14:57:20;;;;;;;;;51.00;39.00;;;;;;;;5055756;28;45508;-74
2022/12/15 14:59:47;;;;;;;;;44.50;36.00;;;;;;;;5058430;28;46611;-74
2022/12/15 15:02:18;;;;;;;;;40.75;36.50;;;;;;;;5051689;28;45660;-76
2022/12/15 15:04:53;;;;;;;;;34.00;32.75;;;;;;;;5054008;28;45257;-75
2022/12/15 15:07:18;;;;;;;;;47.75;41.25;;;;;;;;5053499;28;45605;-74
2022/12/15 15:09:44;;;;;;;;;44.00;37.50;;;;;;;;5047944;28;47204;-75
2022/12/15 15:12:20;;;;;;;;;36.25;33.00;;;;;;;;5056956;28;45329;-74
2022/12/15 15:15:18;;;;;;;;;38.75;31.25;;;;;;;;5054097;28;45346;-75
2022/12/15 15:17:46;;;;;;;;;43.00;37.25;;;;;;;;5035849;28;45494;-75
2022/12/15 15:20:20;;;;;;;;;50.00;45.00;;;;;;;;5057570;28;45628;-76
2022/12/15 15:22:46;;;;;;;;;39.25;33.50;;;;;;;;5048616;28;46296;-76
2022/12/15 15:25:21;;;;;;;;;36.75;34.75;;;;;;;;5058507;28;45275;-77
2022/12/15 15:27:46;;;;;;;;;41.50;39.00;;;;;;;;5057049;28;45474;-77
2022/12/15 15:30:18;;;;;;;;;55.00;44.75;;;;;;;;5059282;28;45233;-76
2022/12/15 15:32:51;;;;;;;;;64.75;51.25;;;;;;;;5059492;28;46045;-76
2022/12/15 15:35:17;;;;;;;;;51.50;41.25;;;;;;;;5052898;28;45738;-77
2022/12/15 15:37:43;;;;;;;;;57.50;48.00;;;;;;;;5059357;28;45414;-77
2022/12/15 15:40:11;;;;;;;;;50.25;40.25;;;;;;;;5057020;28;45645;-75
2022/12/15 15:42:36;;;;;;;;;60.25;47.75;;;;;;;;5056745;28;47663;-76
2022/12/15 15:45:01;;;;;;;;;49.75;42.50;;;;;;;;5058912;28;45389;-76
2022/12/15 15:47:26;;;;;;;;;49.50;43.25;;;;;;;;5059144;28;45342;-76
2022/12/15 15:49:53;;;;;;;;;62.25;50.50;;;;;;;;5059218;28;45466;-76
2022/12/15 15:52:18;;;;;;;;;65.50;54.00;;;;;;;;5059058;28;45222;-75
2022/12/15 15:54:44;;;;;;;;;84.25;64.50;;;;;;;;5059133;28;45415;-76
2022/12/15 15:57:14;;;;;;;;;85.50;64.50;;;;;;;;5058057;28;45197;-75
2022/12/15 15:59:41;;;;;;;;;39.00;34.25;;;;;;;;5059136;28;45602;-76
2022/12/15 16:02:07;;;;;;;;;42.25;35.75;;;;;;;;5057707;28;47374;-76
2022/12/15 16:04:35;;;;;;;;;62.75;50.00;;;;;;;;5056408;28;46072;-76
2022/12/15 16:07:00;;;;;;;;;51.75;41.50;;;;;;;;5057997;28;45512;-76
2022/12/15 16:09:26;;;;;;;;;64.50;52.00;;;;;;;;5050151;28;45544;-76
2022/12/15 16:11:51;;;;;;;;;48.00;42.00;;;;;;;;5053330;28;45593;-76
2022/12/15 16:14:16;;;;;;;;;56.25;46.75;;;;;;;;5046982;28;45475;-76
2022/12/15 16:16:42;;;;;;;;;68.00;56.00;;;;;;;;5052423;28;45824;-76
2022/12/15 16:19:07;;;;;;;;;41.25;37.25;;;;;;;;5047802;28;45331;-76
2022/12/15 16:21:34;;;;;;;;;37.50;35.50;;;;;;;;5055835;28;45365;-76
2022/12/15 16:24:02;;;;;;;;;43.50;36.75;;;;;;;;5058405;28;45439;-77
2022/12/15 16:26:28;;;;;;;;;37.75;36.25;;;;;;;;5054634;28;45385;-77
2022/12/15 16:28:54;;;;;;;;;42.50;37.50;;;;;;;;5054257;28;45232;-76
2022/12/15 16:31:28;;;;;;;;;37.50;35.00;;;;;;;;5054417;28;46225;-76
2022/12/15 16:33:54;;;;;;;;;30.00;28.25;;;;;;;;5056685;28;45308;-76
2022/12/15 16:36:19;;;;;;;;;38.50;34.00;;;;;;;;5056749;28;46678;-78
2022/12/15 16:38:44;;;;;;;;;34.50;31.50;;;;;;;;5044761;28;47205;-78
2022/12/15 16:41:13;;;;;;;;;44.25;34.75;;;;;;;;5056044;28;46288;-76
2022/12/15 16:43:38;;;;;;;;;33.50;29.75;;;;;;;;5058050;28;45399;-77
2022/12/15 16:46:03;;;;;;;;;36.00;30.25;;;;;;;;5054749;28;45344;-76
2022/12/15 16:48:28;;;;;;;;;29.50;28.75;;;;;;;;5058285;28;45386;-76
2022/12/15 16:50:57;;;;;;;;;36.50;30.75;;;;;;;;5057001;28;47638;-76